Creighton, MO (64739)

5:35 PM CDT on September 01, 2015 (GMT -0500)
Chilhowee MO US | | Change Station
CLOSE
Current Station
Personal Weather Station
Location: Chilhowee, MO
Elevation: 894 ft
Nearby Weather Stations

Elev 894 ft 38.60 °N, 93.85 °W | Updated 2 minutes ago

Clear
Clear
86.6 °F
Feels Like 90 °F
N
0.0
Wind Variable Wind from SE
Gusts 9.0 mph

Today
High -- | Low -- °F
--% Chance of Precip.
Yesterday
High -- | Low -- °F
Precip. -- in
6:45 AM 7:46 PM
Waning Gibbous, 86% visible
Pressure 30.01 in
Visibility 9.0 miles
Clouds Clear
Heat Index 90 °F
Dew Point 68 °F
Humidity 54%
Rainfall 0.00 in
Snow Depth Not available.
UV 3 out of 12
Pollen 10.80 out of 12
Air Quality Not available.
Flu Activity Not available.
METAR KGLY 012215Z AUTO 19006KT 9SM CLR 32/19 A3001 RMK AO2
Pressure 30.01 in
Visibility 9.0 miles
Clouds Clear
Heat Index 90 °F
Dew Point 68 °F
Humidity 54%
Rainfall 0.00 in
Snow Depth Not available.
UV 3 out of 12
Pollen 10.80 out of 12
Air Quality Not available.
Flu Activity Not available.
METAR KGLY 012215Z AUTO 19006KT 9SM CLR 32/19 A3001 RMK AO2

10-Day Weather Forecast

×

Almanac

Astronomy

Sep. 01, 2015 Rise Set
Actual Time
Civil Twilight
Nautical Twilight
Astronomical Twilight
Moon
Length of Visible Light
Length of Day
Tomorrow will be .
, % of the Moon is Illuminated

Today's Extremes

State Highs State Lows

Community

WunderPhotos

Upload Photos

1,851,634 photos uploaded!

WunderBlogs® & News

Nearby

Air Quality

  Air Quality AQ Index Pollutant
Not available.

Snow Depth

Station Depth Elevation

Earthquake Activity

City Distance Mag. Time & Date
Minimum magnitude displayed is 2.5.

Coastal Water Temperatures

Place Temperature

Stations

Nearby Weather Stations

Station Location Temp. Windchill Dew Point Humidity Wind Precip. Elev Updated Type